createdAt,value
2022-11-24T01:30:30.690Z,89.48
2022-11-24T01:32:58.126Z,89.21
2022-11-24T01:35:25.361Z,89.19
2022-11-24T01:37:52.573Z,89.14
2022-11-24T01:40:20.215Z,88.70
2022-11-24T01:42:50.735Z,88.45
2022-11-24T01:45:41.157Z,88.42
2022-11-24T01:48:31.570Z,88.16
2022-11-24T01:51:26.986Z,88.14
2022-11-24T01:54:03.153Z,89.56
2022-11-24T01:56:31.874Z,89.94
2022-11-24T01:59:03.432Z,89.78
2022-11-24T02:01:32.472Z,90.28
2022-11-24T02:04:04.006Z,89.48
2022-11-24T02:06:33.841Z,89.45
2022-11-24T02:09:12.129Z,89.72
2022-11-24T02:11:40.882Z,89.36
2022-11-24T02:14:13.314Z,89.73
2022-11-24T02:16:43.577Z,87.88
2022-11-24T02:19:37.110Z,86.81
2022-11-24T02:22:06.320Z,85.71
2022-11-24T02:24:49.780Z,85.66
2022-11-24T02:27:17.494Z,86.19
2022-11-24T02:29:45.632Z,86.65
2022-11-24T02:32:15.834Z,86.13
2022-11-24T02:34:45.635Z,86.57
2022-11-24T02:40:03.594Z,87.07
2022-11-24T02:42:37.324Z,87.54
2022-11-24T02:45:06.046Z,87.39
2022-11-24T02:47:33.505Z,88.15
2022-11-24T02:50:01.227Z,88.35
2022-11-24T02:52:30.455Z,88.30
2022-11-24T02:54:59.778Z,88.25
2022-11-24T02:57:27.293Z,89.99
2022-11-24T02:59:55.379Z,90.33
2022-11-24T03:02:23.614Z,90.96
2022-11-24T03:04:51.166Z,91.01
2022-11-24T03:07:18.807Z,91.59
2022-11-24T03:09:46.539Z,91.45
2022-11-24T03:12:13.943Z,91.05
2022-11-24T03:14:41.649Z,91.04
2022-11-24T03:17:09.214Z,90.69
2022-11-24T03:19:42.646Z,90.44
2022-11-24T03:22:09.909Z,90.41
2022-11-24T03:24:38.559Z,90.15
2022-11-24T03:27:06.289Z,89.84
2022-11-24T03:29:34.020Z,88.63
2022-11-24T04:06:12.674Z,92.22
2022-11-24T04:08:40.386Z,91.82
2022-11-24T04:11:07.945Z,92.42
2022-11-24T04:13:35.490Z,91.02
2022-11-24T04:16:09.738Z,91.36
2022-11-24T04:18:37.300Z,91.72
2022-11-24T04:21:05.799Z,91.94
2022-11-24T04:23:34.122Z,92.63
2022-11-24T04:26:01.493Z,93.53
2022-11-24T04:28:29.628Z,93.79
2022-11-24T04:31:02.848Z,92.20
2022-11-24T04:39:23.202Z,90.26
2022-11-24T04:47:07.685Z,89.73
2022-11-24T04:49:35.685Z,89.99
2022-11-24T04:57:31.605Z,90.74
2022-11-24T04:59:59.459Z,90.69
2022-11-24T05:07:49.669Z,90.70
2022-11-24T05:10:45.365Z,89.65
